sensor_id;sensor_type;location;lat;lon;timestamp;P1;durP1;ratioP1;P2;durP2;ratioP2
52866;SDS011;38739;53.324;6.862;2024-01-06T00:01:16;21.13;;;12.68;;
52866;SDS011;38739;53.324;6.862;2024-01-06T00:03:42;20.52;;;13.07;;
52866;SDS011;38739;53.324;6.862;2024-01-06T00:06:07;21.33;;;13.52;;
52866;SDS011;38739;53.324;6.862;2024-01-06T00:08:36;19.92;;;12.68;;
52866;SDS011;38739;53.324;6.862;2024-01-06T00:11:01;20.83;;;12.65;;
52866;SDS011;38739;53.324;6.862;2024-01-06T00:13:28;19.70;;;13.43;;
52866;SDS011;38739;53.324;6.862;2024-01-06T00:15:53;22.67;;;13.15;;
52866;SDS011;38739;53.324;6.862;2024-01-06T00:18:19;20.25;;;13.55;;
52866;SDS011;38739;53.324;6.862;2024-01-06T00:20:45;21.48;;;13.68;;
52866;SDS011;38739;53.324;6.862;2024-01-06T00:23:10;19.58;;;12.43;;
52866;SDS011;38739;53.324;6.862;2024-01-06T00:25:36;22.00;;;12.25;;
52866;SDS011;38739;53.324;6.862;2024-01-06T00:28:02;20.25;;;12.57;;
52866;SDS011;38739;53.324;6.862;2024-01-06T00:30:28;18.58;;;12.38;;
52866;SDS011;38739;53.324;6.862;2024-01-06T00:32:53;19.38;;;12.30;;
52866;SDS011;38739;53.324;6.862;2024-01-06T00:35:19;18.75;;;12.15;;
52866;SDS011;38739;53.324;6.862;2024-01-06T00:37:45;19.38;;;11.88;;
52866;SDS011;38739;53.324;6.862;2024-01-06T00:40:10;19.90;;;12.63;;
52866;SDS011;38739;53.324;6.862;2024-01-06T00:42:36;19.13;;;12.68;;
52866;SDS011;38739;53.324;6.862;2024-01-06T00:45:02;18.60;;;12.18;;
52866;SDS011;38739;53.324;6.862;2024-01-06T00:47:29;20.63;;;12.05;;
52866;SDS011;38739;53.324;6.862;2024-01-06T00:49:54;20.20;;;12.60;;
52866;SDS011;38739;53.324;6.862;2024-01-06T00:52:20;18.77;;;11.15;;
52866;SDS011;38739;53.324;6.862;2024-01-06T00:54:46;18.50;;;11.18;;
52866;SDS011;38739;53.324;6.862;2024-01-06T00:57:12;18.60;;;11.75;;
52866;SDS011;38739;53.324;6.862;2024-01-06T00:59:38;20.35;;;11.50;;
52866;SDS011;38739;53.324;6.862;2024-01-06T01:02:03;18.38;;;11.23;;
52866;SDS011;38739;53.324;6.862;2024-01-06T01:04:29;16.33;;;10.75;;
52866;SDS011;38739;53.324;6.862;2024-01-06T01:06:55;18.25;;;11.05;;
52866;SDS011;38739;53.324;6.862;2024-01-06T01:09:20;18.83;;;11.35;;
52866;SDS011;38739;53.324;6.862;2024-01-06T01:11:46;18.52;;;12.40;;
52866;SDS011;38739;53.324;6.862;2024-01-06T01:14:12;19.10;;;11.70;;
52866;SDS011;38739;53.324;6.862;2024-01-06T01:16:38;18.05;;;11.52;;
52866;SDS011;38739;53.324;6.862;2024-01-06T01:19:03;17.83;;;11.45;;
52866;SDS011;38739;53.324;6.862;2024-01-06T01:21:29;18.20;;;11.18;;
52866;SDS011;38739;53.324;6.862;2024-01-06T01:23:55;16.35;;;11.48;;
52866;SDS011;38739;53.324;6.862;2024-01-06T01:26:20;19.75;;;11.48;;
52866;SDS011;38739;53.324;6.862;2024-01-06T01:28:46;17.02;;;11.25;;
52866;SDS011;38739;53.324;6.862;2024-01-06T01:31:12;19.15;;;11.98;;
52866;SDS011;38739;53.324;6.862;2024-01-06T01:33:38;19.25;;;12.40;;
52866;SDS011;38739;53.324;6.862;2024-01-06T01:36:04;19.02;;;12.40;;
52866;SDS011;38739;53.324;6.862;2024-01-06T01:38:30;21.23;;;12.60;;
52866;SDS011;38739;53.324;6.862;2024-01-06T01:40:55;21.80;;;12.40;;
52866;SDS011;38739;53.324;6.862;2024-01-06T01:43:21;17.30;;;11.60;;
52866;SDS011;38739;53.324;6.862;2024-01-06T01:45:50;18.42;;;11.70;;
52866;SDS011;38739;53.324;6.862;2024-01-06T01:48:18;16.60;;;11.30;;
52866;SDS011;38739;53.324;6.862;2024-01-06T01:50:47;18.95;;;11.57;;
52866;SDS011;38739;53.324;6.862;2024-01-06T01:53:16;19.10;;;12.05;;
52866;SDS011;38739;53.324;6.862;2024-01-06T01:55:42;18.15;;;11.60;;
52866;SDS011;38739;53.324;6.862;2024-01-06T01:58:10;19.15;;;11.75;;
52866;SDS011;38739;53.324;6.862;2024-01-06T02:00:38;19.75;;;12.48;;
52866;SDS011;38739;53.324;6.862;2024-01-06T02:03:04;18.13;;;11.77;;
52866;SDS011;38739;53.324;6.862;2024-01-06T02:05:30;18.77;;;11.95;;
52866;SDS011;38739;53.324;6.862;2024-01-06T02:07:56;21.77;;;12.70;;
52866;SDS011;38739;53.324;6.862;2024-01-06T02:10:22;23.98;;;12.50;;
52866;SDS011;38739;53.324;6.862;2024-01-06T02:12:48;18.92;;;11.45;;
52866;SDS011;38739;53.324;6.862;2024-01-06T02:15:14;19.45;;;11.48;;
52866;SDS011;38739;53.324;6.862;2024-01-06T02:17:40;19.60;;;11.80;;
52866;SDS011;38739;53.324;6.862;2024-01-06T02:20:08;18.05;;;10.95;;
52866;SDS011;38739;53.324;6.862;2024-01-06T02:22:36;16.73;;;10.27;;
52866;SDS011;38739;53.324;6.862;2024-01-06T02:25:02;17.63;;;11.32;;
52866;SDS011;38739;53.324;6.862;2024-01-06T02:27:32;18.23;;;11.35;;
52866;SDS011;38739;53.324;6.862;2024-01-06T02:29:58;17.77;;;11.27;;
52866;SDS011;38739;53.324;6.862;2024-01-06T02:32:24;17.10;;;10.88;;
52866;SDS011;38739;53.324;6.862;2024-01-06T02:34:49;17.40;;;11.13;;
52866;SDS011;38739;53.324;6.862;2024-01-06T02:37:15;17.52;;;10.68;;
52866;SDS011;38739;53.324;6.862;2024-01-06T02:39:41;18.25;;;11.38;;
52866;SDS011;38739;53.324;6.862;2024-01-06T02:42:06;19.05;;;10.95;;
52866;SDS011;38739;53.324;6.862;2024-01-06T02:44:32;16.95;;;11.25;;
52866;SDS011;38739;53.324;6.862;2024-01-06T02:46:58;18.73;;;11.52;;
52866;SDS011;38739;53.324;6.862;2024-01-06T02:49:23;18.33;;;12.10;;
52866;SDS011;38739;53.324;6.862;2024-01-06T02:51:49;22.88;;;13.38;;
52866;SDS011;38739;53.324;6.862;2024-01-06T02:54:15;21.42;;;13.10;;
52866;SDS011;38739;53.324;6.862;2024-01-06T02:56:40;21.13;;;13.25;;
52866;SDS011;38739;53.324;6.862;2024-01-06T02:59:06;20.77;;;13.00;;
52866;SDS011;38739;53.324;6.862;2024-01-06T03:01:32;19.63;;;12.38;;
52866;SDS011;38739;53.324;6.862;2024-01-06T03:03:57;21.83;;;13.25;;
52866;SDS011;38739;53.324;6.862;2024-01-06T03:06:23;22.35;;;12.73;;
52866;SDS011;38739;53.324;6.862;2024-01-06T03:08:49;22.67;;;14.20;;
52866;SDS011;38739;53.324;6.862;2024-01-06T03:11:14;24.30;;;13.50;;
52866;SDS011;38739;53.324;6.862;2024-01-06T03:13:40;23.98;;;14.32;;
52866;SDS011;38739;53.324;6.862;2024-01-06T03:16:06;24.70;;;14.13;;
52866;SDS011;38739;53.324;6.862;2024-01-06T03:18:31;25.50;;;15.18;;
52866;SDS011;38739;53.324;6.862;2024-01-06T03:20:57;28.23;;;16.13;;
52866;SDS011;38739;53.324;6.862;2024-01-06T03:23:23;26.27;;;15.85;;
52866;SDS011;38739;53.324;6.862;2024-01-06T03:25:48;26.63;;;14.68;;
52866;SDS011;38739;53.324;6.862;2024-01-06T03:28:14;24.17;;;14.93;;
52866;SDS011;38739;53.324;6.862;2024-01-06T03:30:40;26.48;;;16.00;;
52866;SDS011;38739;53.324;6.862;2024-01-06T03:33:06;25.73;;;15.80;;
52866;SDS011;38739;53.324;6.862;2024-01-06T03:35:31;26.50;;;15.80;;
52866;SDS011;38739;53.324;6.862;2024-01-06T03:37:57;25.45;;;15.40;;
52866;SDS011;38739;53.324;6.862;2024-01-06T03:40:23;28.33;;;16.58;;
52866;SDS011;38739;53.324;6.862;2024-01-06T03:42:48;26.50;;;15.52;;
52866;SDS011;38739;53.324;6.862;2024-01-06T03:45:14;24.10;;;15.40;;
52866;SDS011;38739;53.324;6.862;2024-01-06T03:47:40;25.77;;;15.18;;
52866;SDS011;38739;53.324;6.862;2024-01-06T03:50:05;24.65;;;14.75;;
52866;SDS011;38739;53.324;6.862;2024-01-06T03:52:31;24.08;;;15.65;;
52866;SDS011;38739;53.324;6.862;2024-01-06T03:54:57;27.90;;;15.45;;
52866;SDS011;38739;53.324;6.862;2024-01-06T03:57:22;25.75;;;15.73;;
52866;SDS011;38739;53.324;6.862;2024-01-06T03:59:48;24.05;;;15.75;;
52866;SDS011;38739;53.324;6.862;2024-01-06T04:02:14;27.98;;;15.43;;
52866;SDS011;38739;53.324;6.862;2024-01-06T04:04:39;25.38;;;14.57;;
52866;SDS011;38739;53.324;6.862;2024-01-06T04:07:06;25.20;;;15.30;;
52866;SDS011;38739;53.324;6.862;2024-01-06T04:09:32;23.45;;;13.82;;
52866;SDS011;38739;53.324;6.862;2024-01-06T04:11:58;24.90;;;14.02;;
52866;SDS011;38739;53.324;6.862;2024-01-06T04:14:25;26.20;;;15.32;;
52866;SDS011;38739;53.324;6.862;2024-01-06T04:16:51;20.40;;;14.18;;
52866;SDS011;38739;53.324;6.862;2024-01-06T04:19:18;23.73;;;14.88;;
52866;SDS011;38739;53.324;6.862;2024-01-06T04:21:45;23.75;;;14.00;;
52866;SDS011;38739;53.324;6.862;2024-01-06T04:24:12;22.27;;;13.75;;
52866;SDS011;38739;53.324;6.862;2024-01-06T04:26:38;21.92;;;14.40;;
52866;SDS011;38739;53.324;6.862;2024-01-06T04:29:03;25.92;;;14.38;;
52866;SDS011;38739;53.324;6.862;2024-01-06T04:31:29;21.73;;;13.73;;
52866;SDS011;38739;53.324;6.862;2024-01-06T04:33:55;21.42;;;13.82;;
52866;SDS011;38739;53.324;6.862;2024-01-06T04:36:20;24.23;;;13.95;;
52866;SDS011;38739;53.324;6.862;2024-01-06T04:38:46;21.83;;;13.73;;
52866;SDS011;38739;53.324;6.862;2024-01-06T04:41:12;21.70;;;13.63;;
52866;SDS011;38739;53.324;6.862;2024-01-06T04:43:37;21.42;;;13.35;;
52866;SDS011;38739;53.324;6.862;2024-01-06T04:46:03;24.75;;;13.32;;
52866;SDS011;38739;53.324;6.862;2024-01-06T04:48:29;24.50;;;14.02;;
52866;SDS011;38739;53.324;6.862;2024-01-06T04:50:54;19.38;;;12.60;;
52866;SDS011;38739;53.324;6.862;2024-01-06T04:53:20;21.33;;;13.00;;
52866;SDS011;38739;53.324;6.862;2024-01-06T04:55:46;22.05;;;13.27;;
52866;SDS011;38739;53.324;6.862;2024-01-06T04:58:11;20.30;;;12.73;;
52866;SDS011;38739;53.324;6.862;2024-01-06T05:00:37;20.58;;;13.13;;
52866;SDS011;38739;53.324;6.862;2024-01-06T05:03:03;19.60;;;13.10;;
52866;SDS011;38739;53.324;6.862;2024-01-06T05:05:29;20.58;;;11.70;;
52866;SDS011;38739;53.324;6.862;2024-01-06T05:07:54;23.27;;;13.18;;
52866;SDS011;38739;53.324;6.862;2024-01-06T05:10:20;20.88;;;12.50;;
52866;SDS011;38739;53.324;6.862;2024-01-06T05:12:46;20.48;;;12.32;;
52866;SDS011;38739;53.324;6.862;2024-01-06T05:15:11;21.23;;;12.85;;
52866;SDS011;38739;53.324;6.862;2024-01-06T05:17:37;19.30;;;11.93;;
52866;SDS011;38739;53.324;6.862;2024-01-06T05:20:03;18.48;;;11.95;;
52866;SDS011;38739;53.324;6.862;2024-01-06T05:22:29;17.77;;;11.52;;
52866;SDS011;38739;53.324;6.862;2024-01-06T05:24:55;18.23;;;12.07;;
52866;SDS011;38739;53.324;6.862;2024-01-06T05:27:20;21.38;;;12.32;;
52866;SDS011;38739;53.324;6.862;2024-01-06T05:29:46;19.58;;;12.30;;
52866;SDS011;38739;53.324;6.862;2024-01-06T05:32:14;20.17;;;12.40;;
52866;SDS011;38739;53.324;6.862;2024-01-06T05:34:40;21.58;;;13.02;;
52866;SDS011;38739;53.324;6.862;2024-01-06T05:37:06;21.38;;;12.88;;
52866;SDS011;38739;53.324;6.862;2024-01-06T05:39:32;20.75;;;13.13;;
52866;SDS011;38739;53.324;6.862;2024-01-06T05:41:57;18.88;;;12.85;;
52866;SDS011;38739;53.324;6.862;2024-01-06T05:44:23;20.92;;;13.65;;
52866;SDS011;38739;53.324;6.862;2024-01-06T05:46:49;20.40;;;13.35;;
52866;SDS011;38739;53.324;6.862;2024-01-06T05:49:16;21.00;;;13.27;;
52866;SDS011;38739;53.324;6.862;2024-01-06T05:51:45;24.88;;;14.07;;
52866;SDS011;38739;53.324;6.862;2024-01-06T05:54:11;21.10;;;13.70;;
52866;SDS011;38739;53.324;6.862;2024-01-06T05:56:37;21.00;;;14.02;;
52866;SDS011;38739;53.324;6.862;2024-01-06T05:59:03;20.90;;;13.70;;
52866;SDS011;38739;53.324;6.862;2024-01-06T06:01:28;20.52;;;13.05;;
52866;SDS011;38739;53.324;6.862;2024-01-06T06:03:54;23.23;;;14.07;;
52866;SDS011;38739;53.324;6.862;2024-01-06T06:06:20;22.73;;;13.63;;
52866;SDS011;38739;53.324;6.862;2024-01-06T06:08:45;21.48;;;13.65;;
52866;SDS011;38739;53.324;6.862;2024-01-06T06:11:13;19.83;;;13.25;;
52866;SDS011;38739;53.324;6.862;2024-01-06T06:13:42;20.85;;;13.40;;
52866;SDS011;38739;53.324;6.862;2024-01-06T06:16:11;22.35;;;14.10;;
52866;SDS011;38739;53.324;6.862;2024-01-06T06:18:37;23.25;;;14.38;;
52866;SDS011;38739;53.324;6.862;2024-01-06T06:21:03;23.38;;;14.57;;
52866;SDS011;38739;53.324;6.862;2024-01-06T06:23:31;24.95;;;15.43;;
52866;SDS011;38739;53.324;6.862;2024-01-06T06:25:57;24.15;;;14.52;;
52866;SDS011;38739;53.324;6.862;2024-01-06T06:28:24;22.45;;;15.13;;
52866;SDS011;38739;53.324;6.862;2024-01-06T06:30:50;23.83;;;15.18;;
52866;SDS011;38739;53.324;6.862;2024-01-06T06:33:16;25.77;;;15.43;;
52866;SDS011;38739;53.324;6.862;2024-01-06T06:35:42;23.75;;;14.48;;
52866;SDS011;38739;53.324;6.862;2024-01-06T06:38:08;21.45;;;14.63;;
52866;SDS011;38739;53.324;6.862;2024-01-06T06:40:33;23.25;;;14.55;;
52866;SDS011;38739;53.324;6.862;2024-01-06T06:42:59;23.23;;;15.57;;
52866;SDS011;38739;53.324;6.862;2024-01-06T06:45:24;22.50;;;15.25;;
52866;SDS011;38739;53.324;6.862;2024-01-06T06:47:50;22.83;;;14.60;;
52866;SDS011;38739;53.324;6.862;2024-01-06T06:50:17;22.92;;;15.63;;
52866;SDS011;38739;53.324;6.862;2024-01-06T06:52:43;24.23;;;16.30;;
52866;SDS011;38739;53.324;6.862;2024-01-06T06:55:09;28.52;;;17.95;;
52866;SDS011;38739;53.324;6.862;2024-01-06T06:57:35;28.05;;;17.88;;
52866;SDS011;38739;53.324;6.862;2024-01-06T07:00:01;26.08;;;17.70;;
52866;SDS011;38739;53.324;6.862;2024-01-06T07:02:27;31.15;;;19.00;;
52866;SDS011;38739;53.324;6.862;2024-01-06T07:04:53;30.98;;;18.98;;
52866;SDS011;38739;53.324;6.862;2024-01-06T07:07:19;31.13;;;19.30;;
52866;SDS011;38739;53.324;6.862;2024-01-06T07:09:44;29.88;;;18.85;;
52866;SDS011;38739;53.324;6.862;2024-01-06T07:12:10;34.42;;;19.75;;
52866;SDS011;38739;53.324;6.862;2024-01-06T07:14:36;30.20;;;19.90;;
52866;SDS011;38739;53.324;6.862;2024-01-06T07:17:02;32.00;;;19.88;;
52866;SDS011;38739;53.324;6.862;2024-01-06T07:19:29;31.77;;;19.35;;
52866;SDS011;38739;53.324;6.862;2024-01-06T07:21:56;29.35;;;19.35;;
52866;SDS011;38739;53.324;6.862;2024-01-06T07:24:22;30.88;;;20.58;;
52866;SDS011;38739;53.324;6.862;2024-01-06T07:26:48;29.70;;;19.10;;
52866;SDS011;38739;53.324;6.862;2024-01-06T07:29:13;30.40;;;19.67;;
52866;SDS011;38739;53.324;6.862;2024-01-06T07:31:39;32.75;;;19.65;;
52866;SDS011;38739;53.324;6.862;2024-01-06T07:34:05;30.60;;;19.73;;
52866;SDS011;38739;53.324;6.862;2024-01-06T07:36:31;30.80;;;20.02;;
52866;SDS011;38739;53.324;6.862;2024-01-06T07:38:57;34.38;;;21.13;;
52866;SDS011;38739;53.324;6.862;2024-01-06T07:41:23;31.73;;;19.70;;
52866;SDS011;38739;53.324;6.862;2024-01-06T07:43:48;32.88;;;19.83;;
52866;SDS011;38739;53.324;6.862;2024-01-06T07:46:14;32.13;;;20.25;;
52866;SDS011;38739;53.324;6.862;2024-01-06T07:48:40;31.95;;;19.27;;
52866;SDS011;38739;53.324;6.862;2024-01-06T07:51:06;29.45;;;19.10;;
52866;SDS011;38739;53.324;6.862;2024-01-06T07:53:31;29.40;;;18.95;;
52866;SDS011;38739;53.324;6.862;2024-01-06T07:55:58;32.15;;;19.95;;
52866;SDS011;38739;53.324;6.862;2024-01-06T07:58:24;31.88;;;19.50;;
52866;SDS011;38739;53.324;6.862;2024-01-06T08:00:49;31.90;;;20.23;;
52866;SDS011;38739;53.324;6.862;2024-01-06T08:03:15;32.63;;;20.17;;
52866;SDS011;38739;53.324;6.862;2024-01-06T08:05:41;33.55;;;20.48;;
52866;SDS011;38739;53.324;6.862;2024-01-06T08:08:07;31.83;;;20.05;;
52866;SDS011;38739;53.324;6.862;2024-01-06T08:10:33;30.75;;;19.35;;
52866;SDS011;38739;53.324;6.862;2024-01-06T08:12:58;30.63;;;18.85;;
52866;SDS011;38739;53.324;6.862;2024-01-06T08:15:24;31.27;;;19.52;;
52866;SDS011;38739;53.324;6.862;2024-01-06T08:17:50;32.53;;;19.67;;
52866;SDS011;38739;53.324;6.862;2024-01-06T08:20:15;34.08;;;20.13;;
52866;SDS011;38739;53.324;6.862;2024-01-06T08:22:41;31.75;;;19.55;;
52866;SDS011;38739;53.324;6.862;2024-01-06T08:25:07;30.42;;;20.10;;
52866;SDS011;38739;53.324;6.862;2024-01-06T08:27:33;33.38;;;19.85;;
52866;SDS011;38739;53.324;6.862;2024-01-06T08:29:59;27.60;;;18.90;;
52866;SDS011;38739;53.324;6.862;2024-01-06T08:32:25;30.27;;;19.80;;
52866;SDS011;38739;53.324;6.862;2024-01-06T08:34:51;31.40;;;20.35;;
52866;SDS011;38739;53.324;6.862;2024-01-06T08:37:17;32.03;;;20.35;;
52866;SDS011;38739;53.324;6.862;2024-01-06T08:39:43;30.23;;;19.80;;
52866;SDS011;38739;53.324;6.862;2024-01-06T08:42:08;32.97;;;20.83;;
52866;SDS011;38739;53.324;6.862;2024-01-06T08:44:34;32.70;;;20.67;;
52866;SDS011;38739;53.324;6.862;2024-01-06T08:47:00;32.10;;;20.48;;
52866;SDS011;38739;53.324;6.862;2024-01-06T08:49:25;32.92;;;20.48;;
52866;SDS011;38739;53.324;6.862;2024-01-06T08:51:51;31.10;;;20.73;;
52866;SDS011;38739;53.324;6.862;2024-01-06T08:54:17;32.40;;;20.88;;
52866;SDS011;38739;53.324;6.862;2024-01-06T08:56:42;30.52;;;19.85;;
52866;SDS011;38739;53.324;6.862;2024-01-06T08:59:08;32.70;;;19.73;;
52866;SDS011;38739;53.324;6.862;2024-01-06T09:01:34;30.17;;;19.77;;
52866;SDS011;38739;53.324;6.862;2024-01-06T09:04:01;31.80;;;19.90;;
52866;SDS011;38739;53.324;6.862;2024-01-06T09:06:27;29.17;;;18.52;;
52866;SDS011;38739;53.324;6.862;2024-01-06T09:08:53;30.05;;;18.98;;
52866;SDS011;38739;53.324;6.862;2024-01-06T09:11:19;32.25;;;20.48;;
52866;SDS011;38739;53.324;6.862;2024-01-06T09:13:44;33.78;;;19.80;;
52866;SDS011;38739;53.324;6.862;2024-01-06T09:16:10;34.25;;;19.85;;
52866;SDS011;38739;53.324;6.862;2024-01-06T09:18:36;34.50;;;20.33;;
52866;SDS011;38739;53.324;6.862;2024-01-06T09:21:02;31.65;;;19.42;;
52866;SDS011;38739;53.324;6.862;2024-01-06T09:23:28;28.58;;;18.70;;
52866;SDS011;38739;53.324;6.862;2024-01-06T09:25:54;30.23;;;18.15;;
52866;SDS011;38739;53.324;6.862;2024-01-06T09:28:20;27.23;;;17.85;;
52866;SDS011;38739;53.324;6.862;2024-01-06T09:30:46;27.05;;;18.42;;
52866;SDS011;38739;53.324;6.862;2024-01-06T09:33:12;28.25;;;18.02;;
52866;SDS011;38739;53.324;6.862;2024-01-06T09:35:40;27.25;;;17.27;;
52866;SDS011;38739;53.324;6.862;2024-01-06T09:38:07;26.52;;;16.92;;
52866;SDS011;38739;53.324;6.862;2024-01-06T09:40:33;26.65;;;15.95;;
52866;SDS011;38739;53.324;6.862;2024-01-06T09:43:00;23.88;;;15.70;;
52866;SDS011;38739;53.324;6.862;2024-01-06T09:45:27;23.90;;;15.40;;
52866;SDS011;38739;53.324;6.862;2024-01-06T09:47:54;23.10;;;14.57;;
52866;SDS011;38739;53.324;6.862;2024-01-06T09:50:21;21.83;;;14.23;;
52866;SDS011;38739;53.324;6.862;2024-01-06T09:52:47;20.92;;;13.82;;
52866;SDS011;38739;53.324;6.862;2024-01-06T09:55:25;21.17;;;13.75;;
52866;SDS011;38739;53.324;6.862;2024-01-06T09:57:54;18.77;;;12.95;;
52866;SDS011;38739;53.324;6.862;2024-01-06T10:00:20;24.52;;;16.73;;
52866;SDS011;38739;53.324;6.862;2024-01-06T10:02:49;19.38;;;13.45;;
52866;SDS011;38739;53.324;6.862;2024-01-06T10:05:20;15.98;;;11.55;;
52866;SDS011;38739;53.324;6.862;2024-01-06T10:07:46;18.60;;;12.43;;
52866;SDS011;38739;53.324;6.862;2024-01-06T10:10:13;20.42;;;13.52;;
52866;SDS011;38739;53.324;6.862;2024-01-06T10:12:42;18.02;;;12.27;;
52866;SDS011;38739;53.324;6.862;2024-01-06T10:15:09;17.02;;;11.30;;
52866;SDS011;38739;53.324;6.862;2024-01-06T10:17:39;18.02;;;11.25;;
52866;SDS011;38739;53.324;6.862;2024-01-06T10:20:06;17.92;;;12.07;;
52866;SDS011;38739;53.324;6.862;2024-01-06T10:22:36;18.13;;;11.27;;
52866;SDS011;38739;53.324;6.862;2024-01-06T10:25:06;19.70;;;12.32;;
52866;SDS011;38739;53.324;6.862;2024-01-06T10:27:36;19.17;;;12.85;;
52866;SDS011;38739;53.324;6.862;2024-01-06T10:30:05;21.02;;;12.77;;
52866;SDS011;38739;53.324;6.862;2024-01-06T10:32:32;19.20;;;12.57;;
52866;SDS011;38739;53.324;6.862;2024-01-06T10:34:59;19.25;;;12.98;;
52866;SDS011;38739;53.324;6.862;2024-01-06T10:37:28;21.13;;;12.73;;
52866;SDS011;38739;53.324;6.862;2024-01-06T10:40:14;21.05;;;13.75;;
52866;SDS011;38739;53.324;6.862;2024-01-06T10:42:41;20.30;;;12.93;;
52866;SDS011;38739;53.324;6.862;2024-01-06T10:45:09;20.40;;;13.07;;
52866;SDS011;38739;53.324;6.862;2024-01-06T10:47:36;25.58;;;14.38;;
52866;SDS011;38739;53.324;6.862;2024-01-06T10:50:02;21.35;;;13.82;;
52866;SDS011;38739;53.324;6.862;2024-01-06T10:52:28;18.38;;;12.00;;
52866;SDS011;38739;53.324;6.862;2024-01-06T10:54:55;18.52;;;12.30;;
52866;SDS011;38739;53.324;6.862;2024-01-06T10:57:21;18.60;;;11.93;;
52866;SDS011;38739;53.324;6.862;2024-01-06T10:59:52;19.38;;;11.93;;
52866;SDS011;38739;53.324;6.862;2024-01-06T11:02:18;18.65;;;12.43;;
52866;SDS011;38739;53.324;6.862;2024-01-06T11:04:48;18.23;;;12.10;;
52866;SDS011;38739;53.324;6.862;2024-01-06T11:07:16;18.48;;;11.68;;
52866;SDS011;38739;53.324;6.862;2024-01-06T11:09:57;19.08;;;12.20;;
52866;SDS011;38739;53.324;6.862;2024-01-06T11:12:27;19.45;;;12.13;;
52866;SDS011;38739;53.324;6.862;2024-01-06T11:14:53;17.00;;;11.73;;
52866;SDS011;38739;53.324;6.862;2024-01-06T11:20:18;18.60;;;12.57;;
52866;SDS011;38739;53.324;6.862;2024-01-06T11:22:45;18.35;;;12.45;;
52866;SDS011;38739;53.324;6.862;2024-01-06T11:25:15;16.88;;;11.43;;
52866;SDS011;38739;53.324;6.862;2024-01-06T11:27:42;16.55;;;11.68;;
52866;SDS011;38739;53.324;6.862;2024-01-06T11:30:25;17.60;;;11.50;;
52866;SDS011;38739;53.324;6.862;2024-01-06T11:32:52;17.33;;;11.73;;
52866;SDS011;38739;53.324;6.862;2024-01-06T11:35:20;17.98;;;12.60;;
52866;SDS011;38739;53.324;6.862;2024-01-06T11:40:17;17.58;;;12.32;;
52866;SDS011;38739;53.324;6.862;2024-01-06T11:45:28;21.23;;;14.13;;
52866;SDS011;38739;53.324;6.862;2024-01-06T11:47:55;19.23;;;11.73;;
52866;SDS011;38739;53.324;6.862;2024-01-06T11:50:24;16.90;;;11.50;;
52866;SDS011;38739;53.324;6.862;2024-01-06T11:52:51;18.05;;;12.40;;
52866;SDS011;38739;53.324;6.862;2024-01-06T11:55:17;19.55;;;12.30;;
52866;SDS011;38739;53.324;6.862;2024-01-06T11:57:44;20.02;;;11.70;;
52866;SDS011;38739;53.324;6.862;2024-01-06T12:00:10;17.27;;;11.75;;
52866;SDS011;38739;53.324;6.862;2024-01-06T12:02:38;15.57;;;11.10;;
52866;SDS011;38739;53.324;6.862;2024-01-06T12:05:04;16.50;;;10.90;;
52866;SDS011;38739;53.324;6.862;2024-01-06T12:07:30;15.57;;;10.77;;
52866;SDS011;38739;53.324;6.862;2024-01-06T12:10:02;16.42;;;10.73;;
52866;SDS011;38739;53.324;6.862;2024-01-06T12:12:29;17.77;;;11.45;;
52866;SDS011;38739;53.324;6.862;2024-01-06T12:14:54;17.13;;;11.73;;
52866;SDS011;38739;53.324;6.862;2024-01-06T12:17:21;17.15;;;11.55;;
52866;SDS011;38739;53.324;6.862;2024-01-06T12:19:47;16.98;;;11.80;;
52866;SDS011;38739;53.324;6.862;2024-01-06T12:22:13;18.48;;;12.40;;
52866;SDS011;38739;53.324;6.862;2024-01-06T12:24:40;26.55;;;11.45;;
52866;SDS011;38739;53.324;6.862;2024-01-06T12:27:08;15.60;;;10.95;;
52866;SDS011;38739;53.324;6.862;2024-01-06T12:29:37;16.23;;;11.00;;
52866;SDS011;38739;53.324;6.862;2024-01-06T12:32:05;16.17;;;10.85;;
52866;SDS011;38739;53.324;6.862;2024-01-06T12:34:31;17.63;;;11.15;;
52866;SDS011;38739;53.324;6.862;2024-01-06T12:36:57;18.60;;;11.65;;
52866;SDS011;38739;53.324;6.862;2024-01-06T12:39:26;18.92;;;10.93;;
52866;SDS011;38739;53.324;6.862;2024-01-06T12:41:54;16.25;;;10.77;;
52866;SDS011;38739;53.324;6.862;2024-01-06T12:44:20;17.33;;;11.52;;
52866;SDS011;38739;53.324;6.862;2024-01-06T12:46:46;15.70;;;11.07;;
52866;SDS011;38739;53.324;6.862;2024-01-06T12:49:12;18.02;;;11.00;;
52866;SDS011;38739;53.324;6.862;2024-01-06T12:51:38;16.77;;;11.52;;
52866;SDS011;38739;53.324;6.862;2024-01-06T12:54:04;18.00;;;11.70;;
52866;SDS011;38739;53.324;6.862;2024-01-06T12:56:29;20.10;;;11.13;;
52866;SDS011;38739;53.324;6.862;2024-01-06T12:58:55;17.65;;;11.63;;
52866;SDS011;38739;53.324;6.862;2024-01-06T13:01:21;16.75;;;11.00;;
52866;SDS011;38739;53.324;6.862;2024-01-06T13:03:47;17.35;;;11.50;;
52866;SDS011;38739;53.324;6.862;2024-01-06T13:06:12;18.48;;;11.90;;
52866;SDS011;38739;53.324;6.862;2024-01-06T13:08:39;16.60;;;10.95;;
52866;SDS011;38739;53.324;6.862;2024-01-06T13:11:05;18.27;;;11.80;;
52866;SDS011;38739;53.324;6.862;2024-01-06T13:13:32;17.65;;;11.23;;
52866;SDS011;38739;53.324;6.862;2024-01-06T13:15:58;16.33;;;11.20;;
52866;SDS011;38739;53.324;6.862;2024-01-06T13:18:23;19.30;;;12.93;;
52866;SDS011;38739;53.324;6.862;2024-01-06T13:20:49;18.90;;;12.63;;
52866;SDS011;38739;53.324;6.862;2024-01-06T13:23:15;18.58;;;12.00;;
52866;SDS011;38739;53.324;6.862;2024-01-06T13:25:41;18.58;;;11.60;;
52866;SDS011;38739;53.324;6.862;2024-01-06T13:28:06;18.55;;;11.93;;
52866;SDS011;38739;53.324;6.862;2024-01-06T13:30:32;21.35;;;12.82;;
52866;SDS011;38739;53.324;6.862;2024-01-06T13:32:58;18.45;;;11.55;;
52866;SDS011;38739;53.324;6.862;2024-01-06T13:35:24;17.85;;;12.00;;
52866;SDS011;38739;53.324;6.862;2024-01-06T13:37:54;19.33;;;12.18;;
52866;SDS011;38739;53.324;6.862;2024-01-06T13:40:23;16.20;;;10.65;;
52866;SDS011;38739;53.324;6.862;2024-01-06T13:42:50;20.08;;;11.48;;
52866;SDS011;38739;53.324;6.862;2024-01-06T13:45:16;19.50;;;12.20;;
52866;SDS011;38739;53.324;6.862;2024-01-06T13:47:43;19.58;;;12.13;;
52866;SDS011;38739;53.324;6.862;2024-01-06T13:50:13;22.77;;;13.07;;
52866;SDS011;38739;53.324;6.862;2024-01-06T13:52:40;19.05;;;12.25;;
52866;SDS011;38739;53.324;6.862;2024-01-06T13:55:06;21.35;;;12.43;;
52866;SDS011;38739;53.324;6.862;2024-01-06T13:57:33;19.30;;;12.00;;
52866;SDS011;38739;53.324;6.862;2024-01-06T13:59:59;20.90;;;14.13;;
52866;SDS011;38739;53.324;6.862;2024-01-06T14:02:25;25.65;;;16.08;;
52866;SDS011;38739;53.324;6.862;2024-01-06T14:04:51;22.30;;;14.98;;
52866;SDS011;38739;53.324;6.862;2024-01-06T14:07:17;19.83;;;13.13;;
52866;SDS011;38739;53.324;6.862;2024-01-06T14:09:47;20.58;;;12.93;;
52866;SDS011;38739;53.324;6.862;2024-01-06T14:12:13;19.55;;;12.05;;
52866;SDS011;38739;53.324;6.862;2024-01-06T14:14:39;19.85;;;13.05;;
52866;SDS011;38739;53.324;6.862;2024-01-06T14:17:06;19.55;;;12.40;;
52866;SDS011;38739;53.324;6.862;2024-01-06T14:19:32;18.75;;;11.75;;
52866;SDS011;38739;53.324;6.862;2024-01-06T14:21:58;21.40;;;13.25;;
52866;SDS011;38739;53.324;6.862;2024-01-06T14:24:23;22.52;;;13.50;;